Aeroporto :
LOGIN :

Iscrizione | Disclaimer

   EN    FR    IT 

 










Sommario :    VFR   VFR Marginale   IFR   IFR Intensivo   IFR Molto Intensivo
Visibilità : 
Base nubi : 
>= 8 km
>= 3000ft
5 / 8 km
1000 / 3000 ft
1500m / 5 km
500 / 1000 ft
800 / 1500m
200 / 500 ft
< 800m
< 200 ft
Simboli :   Temporali  Nebbia  Neve Forte  Precipitazioni Forti  Vento > 20 kt
SIGMETs :   Varie  Temporali  Ghiacco  Turbolenza  Onda orograficha  Ceneri Vulcaniche







- Altitudine del aeroporto : 919 ft
- Codice IATA : IFO


UKLI - Ivano Frankivs'k

ULTIMO METAR :
  • 220600Z 24003MPS 9999 BKN040 08/02 Q1029 R28/090070 NOSIG

METARs OBSOLETI :
  • 220530Z 25004MPS 9999 BKN040 07/03 Q1030 R28/090070 NOSIG
  • 220500Z 25004MPS 9999 BKN040 07/03 Q1030 R28/090070 NOSIG
  • 220430Z 24003MPS 9999 BKN040 06/04 Q1029 R28/090070 NOSIG
  • 220400Z 24004MPS 9999 BKN040 06/04 Q1029 R28/090070 NOSIG
  • 220330Z 24003MPS 9999 BKN040 06/03 Q1029 NOSIG

TAF TAF UKLI
Valido dal 22 a 06 ore il 22 a 15 ore UTC


220504Z 2206/2215 26005MPS 9999 BKN020
TEMPO 2212/2215 30007G12MPS 3000 -SHRA BKN015CB
Nessun NOTAM noto per questo aeroporto.



MetMap, La meteo Aeronautica in un colpo d'occhio ! - Copyright ORBIFLY Dicembre 2007 - Disclaimer

ORBIFLY MET'MAP TEAM :

Programmazione e sviluppo : Alexandra Zaïnal
Concezione e sviluppo : Baudouin d'Aumeries
Co-Programmazione e sviluppo : Marc-Olivier Méhu
Supporto tecnico e logistico : Manuel Goepfert
Aiuto per la traduzione : Arnaldo La Scala

Contatto : metmap@orbifly.com




FONTI E CREDITI :

   NOAA